Time;durP1;ratioP1;P1;durP2;ratioP2;P2;SDS_P1;SDS_P2;PMS_P1;PMS_P2;Temp;Humidity;BMP_temperature;BMP_pressure;BME280_temperature;BME280_humidity;BME280_pressure;Samples;Min_cycle;Max_cycle;Signal;HPM_P1;HPM_P2
2024/03/09 00:01:27;;;;;;;3.03;2.10;;;11.20;96.70;;;;;;4967785;28;20046;-73
2024/03/09 00:03:56;;;;;;;2.08;1.80;;;11.20;96.70;;;;;;4988045;28;20054;-73
2024/03/09 00:06:26;;;;;;;2.47;1.58;;;11.20;96.70;;;;;;4990475;28;20498;-73
2024/03/09 00:08:56;;;;;;;2.10;1.30;;;11.20;96.70;;;;;;4980360;28;20054;-73
2024/03/09 00:11:26;;;;;;;2.97;1.90;;;11.20;96.70;;;;;;4978448;28;20112;-73
2024/03/09 00:13:56;;;;;;;2.75;1.85;;;11.20;96.70;;;;;;4968216;28;20283;-73
2024/03/09 00:16:29;;;;;;;2.80;1.40;;;11.10;96.70;;;;;;4979684;28;20493;-73
2024/03/09 00:19:03;;;;;;;2.25;1.10;;;11.20;96.70;;;;;;4970298;28;20054;-73
2024/03/09 00:21:33;;;;;;;1.70;1.05;;;11.20;96.70;;;;;;4988120;28;20049;-73
2024/03/09 00:24:04;;;;;;;1.80;1.17;;;11.20;96.70;;;;;;4979513;28;20050;-74
2024/03/09 00:26:32;;;;;;;2.13;1.15;;;11.20;96.70;;;;;;4976235;28;20083;-73
2024/03/09 00:29:02;;;;;;;2.10;1.02;;;11.20;96.70;;;;;;4971672;28;20130;-73
2024/03/09 00:31:33;;;;;;;3.30;1.10;;;11.20;96.70;;;;;;4993640;28;20076;-73
2024/03/09 00:34:04;;;;;;;1.75;1.00;;;11.20;96.70;;;;;;4983853;28;20050;-73
2024/03/09 00:36:34;;;;;;;2.03;0.80;;;11.10;96.70;;;;;;4982173;28;20050;-73
2024/03/09 00:39:02;;;;;;;1.48;0.95;;;11.10;96.70;;;;;;4976190;28;20043;-73
2024/03/09 00:41:32;;;;;;;2.15;0.80;;;11.10;96.70;;;;;;4978450;28;20065;-73
2024/03/09 00:44:03;;;;;;;0.82;0.52;;;11.00;96.70;;;;;;4993804;28;20050;-74
2024/03/09 00:46:35;;;;;;;1.63;1.20;;;11.00;96.70;;;;;;4984044;28;20056;-73
2024/03/09 00:49:04;;;;;;;1.70;0.80;;;11.00;96.70;;;;;;4986873;28;20062;-74
2024/03/09 00:51:33;;;;;;;1.88;0.63;;;11.00;96.70;;;;;;4981419;28;20103;-73
2024/03/09 00:54:01;;;;;;;1.80;0.63;;;11.00;96.70;;;;;;4979057;28;20050;-73
2024/03/09 00:56:32;;;;;;;1.70;1.05;;;11.00;96.70;;;;;;4968886;28;20058;-73
2024/03/09 00:59:03;;;;;;;0.95;0.65;;;10.90;96.70;;;;;;4969961;28;20049;-73
2024/03/09 01:01:37;;;;;;;1.30;0.70;;;10.80;96.70;;;;;;4986634;28;20046;-73
2024/03/09 01:04:09;;;;;;;2.05;1.75;;;10.70;96.70;;;;;;4988472;28;20050;-73
2024/03/09 01:06:39;;;;;;;1.60;1.10;;;10.70;96.70;;;;;;4969896;28;20145;-73
2024/03/09 01:09:07;;;;;;;2.10;0.60;;;10.60;96.70;;;;;;4975126;28;20058;-73
2024/03/09 01:11:38;;;;;;;1.42;1.13;;;10.60;96.70;;;;;;4961290;28;20042;-73
2024/03/09 01:14:07;;;;;;;1.80;0.60;;;10.50;96.70;;;;;;4966692;28;20053;-73
2024/03/09 01:16:37;;;;;;;2.17;0.70;;;10.50;96.70;;;;;;4992914;28;20072;-73
2024/03/09 01:19:06;;;;;;;0.93;0.50;;;10.50;96.70;;;;;;4978703;28;20058;-73
2024/03/09 01:21:35;;;;;;;1.17;0.60;;;10.50;96.70;;;;;;4995757;28;20060;-74
2024/03/09 01:24:04;;;;;;;1.85;0.60;;;10.50;96.70;;;;;;4988630;28;20139;-74
2024/03/09 01:26:34;;;;;;;1.15;0.60;;;10.60;96.70;;;;;;4968721;28;20215;-73
2024/03/09 01:29:02;;;;;;;2.42;1.55;;;10.60;96.70;;;;;;4974261;28;20056;-74
2024/03/09 01:31:32;;;;;;;2.33;0.60;;;10.60;96.70;;;;;;4993251;28;20689;-74
2024/03/09 01:34:03;;;;;;;1.55;0.50;;;10.70;96.70;;;;;;4970383;28;20401;-74
2024/03/09 01:36:33;;;;;;;0.88;0.57;;;10.70;96.70;;;;;;4968676;28;20070;-74
2024/03/09 01:39:02;;;;;;;1.02;0.63;;;10.70;96.70;;;;;;4985911;28;20462;-74
2024/03/09 01:41:30;;;;;;;1.05;0.55;;;10.70;96.70;;;;;;4969972;28;20062;-74
2024/03/09 01:44:00;;;;;;;1.23;0.65;;;10.70;96.70;;;;;;4988320;28;20050;-74
2024/03/09 01:46:32;;;;;;;1.52;0.50;;;10.80;96.70;;;;;;4970381;28;20172;-74
2024/03/09 01:49:02;;;;;;;0.60;0.40;;;10.80;96.70;;;;;;4975440;28;20041;-73
2024/03/09 01:51:32;;;;;;;0.98;0.50;;;10.80;96.70;;;;;;4972746;28;20060;-73
2024/03/09 01:54:05;;;;;;;1.00;0.50;;;10.80;96.70;;;;;;4978130;28;20506;-74
2024/03/09 01:56:34;;;;;;;1.35;0.40;;;10.80;96.70;;;;;;4993738;28;20047;-73
2024/03/09 01:59:07;;;;;;;1.73;0.70;;;10.80;96.70;;;;;;4976678;28;20054;-73
2024/03/09 02:01:36;;;;;;;0.70;0.40;;;10.80;96.70;;;;;;4977891;28;20054;-73
2024/03/09 02:04:08;;;;;;;0.70;0.47;;;10.80;96.70;;;;;;4981646;28;20053;-72
2024/03/09 02:06:37;;;;;;;0.50;0.35;;;10.90;96.70;;;;;;4989054;28;20077;-73
2024/03/09 02:09:10;;;;;;;1.35;0.57;;;10.90;96.70;;;;;;4985074;28;20047;-73
2024/03/09 02:11:42;;;;;;;1.17;0.60;;;10.90;96.70;;;;;;4983157;28;20054;-73
2024/03/09 02:14:12;;;;;;;1.02;0.63;;;10.90;96.70;;;;;;4970338;28;20608;-73
2024/03/09 02:16:43;;;;;;;1.50;0.55;;;10.90;96.70;;;;;;5000803;28;20050;-73
2024/03/09 02:19:14;;;;;;;1.92;0.63;;;10.80;96.70;;;;;;4990144;28;20145;-73
2024/03/09 02:21:45;;;;;;;2.70;0.65;;;10.80;96.70;;;;;;5001128;28;20868;-73
2024/03/09 02:24:21;;;;;;;0.80;0.50;;;10.80;96.70;;;;;;4972548;28;20795;-73
2024/03/09 02:26:53;;;;;;;2.50;0.70;;;10.80;96.70;;;;;;4989715;28;20112;-73
2024/03/09 02:29:23;;;;;;;1.27;0.73;;;10.70;96.70;;;;;;4990478;28;20466;-73
2024/03/09 02:31:55;;;;;;;1.75;0.60;;;10.70;96.70;;;;;;4986074;28;20109;-74
2024/03/09 02:34:24;;;;;;;1.27;0.40;;;10.70;96.70;;;;;;4973151;28;20050;-73
2024/03/09 02:36:52;;;;;;;0.90;0.70;;;10.70;96.70;;;;;;4993015;28;20069;-73
2024/03/09 02:39:23;;;;;;;1.83;1.17;;;10.70;96.70;;;;;;4991722;28;20042;-73
2024/03/09 02:41:53;;;;;;;7.07;6.57;;;10.70;96.70;;;;;;4987748;28;20058;-73
2024/03/09 02:44:22;;;;;;;1.92;1.83;;;10.70;96.70;;;;;;4980961;28;20132;-73
2024/03/09 02:46:51;;;;;;;2.33;1.55;;;10.70;96.70;;;;;;4974216;28;20084;-73
2024/03/09 02:49:20;;;;;;;1.92;1.30;;;10.80;96.70;;;;;;4999425;28;20045;-73
2024/03/09 02:51:54;;;;;;;1.35;1.25;;;10.90;96.70;;;;;;4974432;28;20078;-73
2024/03/09 02:54:23;;;;;;;4.40;4.00;;;10.80;96.70;;;;;;4975921;28;20065;-74
2024/03/09 02:56:54;;;;;;;4.78;4.47;;;10.80;96.70;;;;;;4995138;28;20104;-74
2024/03/09 02:59:22;;;;;;;1.83;1.60;;;10.80;96.70;;;;;;4973268;28;20459;-73
2024/03/09 03:01:52;;;;;;;1.00;0.90;;;10.70;96.70;;;;;;4971807;28;20061;-74
2024/03/09 03:04:21;;;;;;;1.70;1.23;;;10.70;96.70;;;;;;4995079;28;20054;-73
2024/03/09 03:06:50;;;;;;;0.95;0.63;;;10.60;96.70;;;;;;4999465;28;20069;-73
2024/03/09 03:09:21;;;;;;;1.80;0.40;;;10.60;96.70;;;;;;4977574;28;20522;-73
2024/03/09 03:11:51;;;;;;;0.50;0.40;;;10.50;96.70;;;;;;4999091;28;20116;-73
2024/03/09 03:14:23;;;;;;;0.63;0.40;;;10.50;96.70;;;;;;4974467;28;20050;-73
2024/03/09 03:16:56;;;;;;;1.52;0.32;;;10.50;96.70;;;;;;4982025;28;20143;-74
2024/03/09 03:19:26;;;;;;;1.05;0.40;;;10.50;96.70;;;;;;5000981;28;20045;-73
2024/03/09 03:21:59;;;;;;;1.02;0.50;;;10.40;96.70;;;;;;5001050;28;20077;-74
2024/03/09 03:24:28;;;;;;;0.80;0.50;;;10.40;96.70;;;;;;5004651;28;20413;-74
2024/03/09 03:26:59;;;;;;;1.48;0.47;;;10.40;96.70;;;;;;5012381;28;20660;-73
2024/03/09 03:29:30;;;;;;;1.30;0.50;;;10.40;96.70;;;;;;4985159;28;20077;-73
2024/03/09 03:32:01;;;;;;;1.02;0.30;;;10.40;96.70;;;;;;4980163;28;20502;-73
2024/03/09 03:34:32;;;;;;;2.72;0.52;;;10.50;96.70;;;;;;4999582;28;20050;-73
2024/03/09 03:37:04;;;;;;;1.05;0.50;;;10.50;96.70;;;;;;4990956;28;20075;-73
2024/03/09 03:39:32;;;;;;;1.15;0.45;;;10.50;96.70;;;;;;4966840;28;20069;-73
2024/03/09 03:42:02;;;;;;;0.77;0.40;;;10.50;96.70;;;;;;5000618;28;20144;-73
2024/03/09 03:44:35;;;;;;;0.90;0.40;;;10.50;96.70;;;;;;4978267;28;20042;-73
2024/03/09 03:47:05;;;;;;;1.17;0.55;;;10.60;96.70;;;;;;5006000;28;20064;-73
2024/03/09 03:49:36;;;;;;;1.02;0.60;;;10.60;96.70;;;;;;4975051;28;20084;-73
2024/03/09 03:52:06;;;;;;;0.55;0.30;;;10.60;96.70;;;;;;4991284;28;20088;-73
2024/03/09 03:54:36;;;;;;;1.70;0.68;;;10.60;96.70;;;;;;4999971;28;20046;-73
2024/03/09 03:57:05;;;;;;;0.60;0.40;;;10.60;96.70;;;;;;4987082;28;20053;-72
2024/03/09 03:59:34;;;;;;;1.73;0.50;;;10.60;96.70;;;;;;4995913;28;20054;-73
2024/03/09 04:02:07;;;;;;;0.52;0.40;;;10.60;96.70;;;;;;5000526;28;20049;-73
2024/03/09 04:04:36;;;;;;;1.40;0.43;;;10.50;96.70;;;;;;4976369;28;20180;-73
2024/03/09 04:07:06;;;;;;;1.83;1.13;;;10.50;96.70;;;;;;4984985;28;20056;-73
2024/03/09 04:09:34;;;;;;;1.45;1.00;;;10.50;96.70;;;;;;5006706;28;20053;-73
2024/03/09 04:12:03;;;;;;;2.30;1.65;;;10.50;96.70;;;;;;4974815;28;20042;-73
2024/03/09 04:14:32;;;;;;;2.50;2.30;;;10.50;96.70;;;;;;4994732;28;20056;-73
2024/03/09 04:17:01;;;;;;;1.92;1.10;;;10.50;96.70;;;;;;5006328;28;20041;-73
2024/03/09 04:19:30;;;;;;;1.42;1.00;;;10.40;96.70;;;;;;4981392;28;20893;-74
2024/03/09 04:21:59;;;;;;;1.25;0.60;;;10.50;96.70;;;;;;4994773;28;20140;-73
2024/03/09 04:24:28;;;;;;;0.75;0.60;;;10.50;96.70;;;;;;4979844;28;20044;-73
2024/03/09 04:26:57;;;;;;;1.02;0.50;;;10.50;96.70;;;;;;4970637;28;20438;-73
2024/03/09 04:29:28;;;;;;;1.73;0.40;;;10.50;96.70;;;;;;4991841;28;20050;-74
2024/03/09 04:31:58;;;;;;;2.40;0.50;;;10.50;96.70;;;;;;5000818;28;20591;-73
2024/03/09 04:34:33;;;;;;;0.70;0.40;;;10.50;96.70;;;;;;4997371;28;20108;-73
2024/03/09 04:37:05;;;;;;;1.15;0.60;;;10.40;96.70;;;;;;4976781;28;20042;-73
2024/03/09 04:39:43;;;;;;;2.63;1.13;;;10.40;96.70;;;;;;4980736;28;20057;-73
2024/03/09 04:42:13;;;;;;;0.90;0.60;;;10.40;96.70;;;;;;4981916;28;20050;-73
2024/03/09 04:44:41;;;;;;;0.70;0.50;;;10.30;96.70;;;;;;4985386;28;20047;-73
2024/03/09 04:47:11;;;;;;;1.67;0.57;;;10.30;96.70;;;;;;4995967;28;20053;-73
2024/03/09 04:49:45;;;;;;;1.38;0.40;;;10.30;96.70;;;;;;4988331;28;20143;-73
2024/03/09 04:52:13;;;;;;;0.68;0.38;;;10.30;96.70;;;;;;4986717;28;20542;-73
2024/03/09 04:54:43;;;;;;;0.90;0.40;;;10.40;96.70;;;;;;4977522;28;20076;-73
2024/03/09 04:57:17;;;;;;;0.80;0.50;;;10.40;96.70;;;;;;4990628;28;20144;-73
2024/03/09 04:59:48;;;;;;;2.13;0.50;;;10.40;96.70;;;;;;4996270;28;20078;-73
2024/03/09 05:02:17;;;;;;;1.27;0.47;;;10.40;96.70;;;;;;4974355;28;20057;-73
2024/03/09 05:04:49;;;;;;;1.33;0.70;;;10.50;96.70;;;;;;4981379;28;20050;-74
2024/03/09 05:07:18;;;;;;;0.90;0.68;;;10.50;96.70;;;;;;4968050;28;20046;-73
2024/03/09 05:09:48;;;;;;;0.85;0.52;;;10.50;96.70;;;;;;4977988;28;20056;-73
2024/03/09 05:12:16;;;;;;;3.67;0.50;;;10.50;96.70;;;;;;4987555;28;20062;-73
2024/03/09 05:14:45;;;;;;;1.50;0.70;;;10.60;96.70;;;;;;4978424;28;20451;-72
2024/03/09 05:17:14;;;;;;;0.90;0.55;;;10.60;96.70;;;;;;4981607;28;20069;-73
2024/03/09 05:19:43;;;;;;;1.50;0.85;;;10.60;96.70;;;;;;4990250;28;20132;-73
2024/03/09 05:22:15;;;;;;;1.63;1.50;;;10.60;96.70;;;;;;4983427;28;20041;-73
2024/03/09 05:24:43;;;;;;;1.50;0.60;;;10.60;96.70;;;;;;4999162;28;20045;-74
2024/03/09 05:27:11;;;;;;;1.05;0.90;;;10.70;96.70;;;;;;4997623;28;20074;-73
2024/03/09 05:29:43;;;;;;;1.40;0.70;;;10.70;96.70;;;;;;4990068;28;20050;-73
2024/03/09 05:32:11;;;;;;;1.02;0.70;;;10.60;96.70;;;;;;4994497;28;20434;-73
2024/03/09 05:34:41;;;;;;;3.40;1.40;;;10.70;96.70;;;;;;4994360;28;20050;-73
2024/03/09 05:37:09;;;;;;;2.65;2.45;;;10.70;96.70;;;;;;4981805;28;20789;-73
2024/03/09 05:39:40;;;;;;;1.30;1.20;;;10.60;96.70;;;;;;4989761;28;20058;-73
2024/03/09 05:42:08;;;;;;;2.67;1.48;;;10.60;96.70;;;;;;4993851;28;20585;-73
2024/03/09 05:44:37;;;;;;;2.20;0.90;;;10.60;96.70;;;;;;4977490;28;20056;-73
2024/03/09 05:47:08;;;;;;;1.00;0.80;;;10.60;96.70;;;;;;4978633;28;20066;-73
2024/03/09 05:49:38;;;;;;;1.38;0.98;;;10.60;96.70;;;;;;4972983;28;20404;-73
2024/03/09 05:52:07;;;;;;;2.20;0.90;;;10.60;96.70;;;;;;4998819;28;20073;-73
2024/03/09 05:54:38;;;;;;;1.75;1.17;;;10.70;96.70;;;;;;4978488;28;20519;-73
2024/03/09 05:57:08;;;;;;;1.63;1.02;;;10.70;96.70;;;;;;4989804;28;20060;-74
2024/03/09 05:59:38;;;;;;;1.48;1.13;;;10.70;96.70;;;;;;5005173;28;20053;-73
2024/03/09 06:02:07;;;;;;;1.35;1.25;;;10.70;96.70;;;;;;4983447;28;20476;-73
2024/03/09 06:04:36;;;;;;;2.15;1.52;;;10.80;96.70;;;;;;4983586;28;20046;-73
2024/03/09 06:07:06;;;;;;;2.03;1.48;;;10.70;96.70;;;;;;4980774;28;20141;-73
2024/03/09 06:09:34;;;;;;;2.08;1.48;;;10.80;96.70;;;;;;4995499;28;20053;-73
2024/03/09 06:12:32;;;;;;;2.80;1.48;;;10.70;96.70;;;;;;4990706;28;20128;-73
2024/03/09 06:15:45;;;;;;;2.10;1.27;;;10.80;96.70;;;;;;4997906;28;20046;-73
2024/03/09 06:18:58;;;;;;;1.83;1.20;;;10.80;96.70;;;;;;5010404;28;20045;-73
2024/03/09 06:22:10;;;;;;;1.90;1.25;;;10.90;96.70;;;;;;5002130;28;20048;-72
2024/03/09 06:25:23;;;;;;;1.95;1.52;;;10.90;96.70;;;;;;5002149;28;20030;-74
2024/03/09 06:28:38;;;;;;;2.25;1.40;;;10.90;96.70;;;;;;5024786;28;20184;-73
2024/03/09 06:31:51;;;;;;;2.67;1.35;;;10.90;96.70;;;;;;5009575;28;20124;-73
2024/03/09 06:35:04;;;;;;;2.72;1.73;;;10.90;96.70;;;;;;5005811;28;20067;-73
2024/03/09 06:38:17;;;;;;;2.55;1.40;;;10.90;96.70;;;;;;5009867;28;20140;-73
2024/03/09 06:41:30;;;;;;;3.05;1.80;;;10.90;96.70;;;;;;5015483;28;20727;-73
2024/03/09 06:44:44;;;;;;;3.53;1.63;;;10.90;96.70;;;;;;5020553;28;20077;-73
2024/03/09 06:48:12;;;;;;;2.58;1.58;;;10.90;96.70;;;;;;5008689;28;20060;-73
2024/03/09 06:51:24;;;;;;;2.22;1.48;;;10.90;96.70;;;;;;5021158;28;20061;-74
2024/03/09 06:54:37;;;;;;;4.20;2.72;;;11.00;96.70;;;;;;5005034;28;20057;-74
2024/03/09 06:57:50;;;;;;;3.50;2.65;;;10.90;96.70;;;;;;5011208;28;20041;-73
2024/03/09 07:01:05;;;;;;;4.45;2.78;;;11.00;96.70;;;;;;5004754;28;20077;-73
2024/03/09 07:04:18;;;;;;;4.15;3.10;;;11.00;96.70;;;;;;5001108;28;20045;-74
2024/03/09 07:07:31;;;;;;;4.25;3.13;;;11.00;96.70;;;;;;5000081;28;20046;-74
2024/03/09 07:10:43;;;;;;;5.57;3.97;;;11.00;96.70;;;;;;5013350;28;20056;-74
2024/03/09 07:13:58;;;;;;;4.55;3.90;;;11.10;96.70;;;;;;5007399;28;20107;-74
2024/03/09 07:17:16;;;;;;;3.75;2.85;;;11.10;96.70;;;;;;5013573;28;20045;-74
2024/03/09 07:20:32;;;;;;;3.80;2.10;;;11.10;96.70;;;;;;5008623;28;20048;-74
2024/03/09 07:23:44;;;;;;;3.80;2.22;;;11.20;96.70;;;;;;5010604;28;20046;-74
2024/03/09 07:26:57;;;;;;;5.10;2.70;;;11.20;96.70;;;;;;5019630;28;20053;-74
2024/03/09 07:30:11;;;;;;;3.28;2.10;;;11.30;96.70;;;;;;5010491;28;20682;-74
2024/03/09 07:33:24;;;;;;;2.78;2.40;;;11.30;96.70;;;;;;5015127;28;20717;-74
2024/03/09 07:36:37;;;;;;;4.18;3.78;;;11.30;96.70;;;;;;5015069;28;20134;-74
2024/03/09 07:39:50;;;;;;;3.00;2.17;;;11.40;96.70;;;;;;5008104;28;20052;-74
2024/03/09 07:43:04;;;;;;;4.10;2.75;;;11.40;96.70;;;;;;5002451;28;20052;-74
2024/03/09 07:46:20;;;;;;;4.95;2.85;;;11.50;96.70;;;;;;5006261;28;20049;-74
2024/03/09 07:49:33;;;;;;;5.57;2.60;;;11.50;96.70;;;;;;5019609;28;20045;-74
2024/03/09 07:52:49;;;;;;;4.22;3.10;;;11.70;96.70;;;;;;5011959;28;20049;-74
2024/03/09 07:56:18;;;;;;;3.92;2.90;;;11.70;96.70;;;;;;4970640;28;20595;-74
2024/03/09 07:59:31;;;;;;;3.33;2.72;;;11.80;96.70;;;;;;4963089;28;20460;-73
2024/03/09 08:02:43;;;;;;;3.03;2.40;;;11.80;96.70;;;;;;4964469;28;20062;-74
2024/03/09 08:05:56;;;;;;;2.83;2.40;;;11.80;96.70;;;;;;4970873;28;20058;-73
2024/03/09 08:09:13;;;;;;;3.53;2.33;;;11.80;96.70;;;;;;4968292;28;20204;-74
2024/03/09 08:12:25;;;;;;;3.88;2.38;;;11.80;96.70;;;;;;4965842;28;20113;-74
2024/03/09 08:15:38;;;;;;;2.80;2.35;;;11.90;96.70;;;;;;4965612;28;20558;-74
2024/03/09 08:18:51;;;;;;;3.35;2.38;;;12.00;96.70;;;;;;4964993;28;20070;-74
2024/03/09 08:22:04;;;;;;;4.95;2.60;;;12.10;96.70;;;;;;4968729;28;20955;-74
2024/03/09 08:25:17;;;;;;;4.10;2.53;;;12.20;96.70;;;;;;4981957;28;20598;-74
2024/03/09 08:28:32;;;;;;;3.67;2.65;;;12.20;96.70;;;;;;5013623;28;20142;-74
2024/03/09 08:31:45;;;;;;;2.33;1.90;;;12.10;96.70;;;;;;5007927;28;20058;-74
2024/03/09 08:34:58;;;;;;;4.00;2.00;;;12.10;96.70;;;;;;5020452;28;20076;-73
2024/03/09 08:38:13;;;;;;;3.70;1.92;;;12.20;96.70;;;;;;5012376;28;20432;-74
2024/03/09 08:41:27;;;;;;;3.38;2.20;;;12.20;96.70;;;;;;5011111;28;20689;-74
2024/03/09 08:44:40;;;;;;;3.33;2.15;;;12.20;96.70;;;;;;5005462;28;20064;-74
2024/03/09 08:47:52;;;;;;;3.15;2.40;;;12.20;96.70;;;;;;5001438;28;20057;-74
2024/03/09 08:51:05;;;;;;;2.17;1.75;;;12.40;96.70;;;;;;5018377;28;20052;-74
2024/03/09 08:54:18;;;;;;;3.42;2.28;;;12.50;96.70;;;;;;4995039;28;20065;-74
2024/03/09 08:57:31;;;;;;;3.00;2.10;;;12.60;96.70;;;;;;5014511;28;20061;-73
2024/03/09 09:00:44;;;;;;;3.33;1.85;;;12.70;96.70;;;;;;5013099;28;20061;-73
2024/03/09 09:03:59;;;;;;;2.83;1.77;;;12.80;96.70;;;;;;5018691;28;20080;-73
2024/03/09 09:07:12;;;;;;;2.50;1.88;;;12.80;96.70;;;;;;5006301;28;20053;-72
2024/03/09 09:10:25;;;;;;;2.42;1.67;;;12.80;96.70;;;;;;4997615;28;20135;-74
2024/03/09 09:13:38;;;;;;;2.97;1.75;;;13.00;96.70;;;;;;4998395;28;20066;-73
2024/03/09 09:16:53;;;;;;;2.70;1.52;;;13.00;96.70;;;;;;5021326;28;20061;-74
2024/03/09 09:20:11;;;;;;;1.38;1.23;;;13.00;96.70;;;;;;5005707;28;20066;-74
2024/03/09 09:26:36;;;;;;;5.20;1.38;;;13.30;96.70;;;;;;4699645;28;22246;-74
2024/03/09 09:29:04;;;;;;;2.65;2.38;;;13.20;96.70;;;;;;4954269;28;21300;-73
2024/03/09 09:31:33;;;;;;;2.20;1.58;;;13.20;96.70;;;;;;4979981;28;20051;-74
2024/03/09 09:34:01;;;;;;;3.50;1.40;;;13.20;96.70;;;;;;4956151;28;20050;-73
2024/03/09 09:36:30;;;;;;;2.00;1.27;;;13.50;96.70;;;;;;4959103;28;20046;-74
2024/03/09 09:39:01;;;;;;;2.40;1.40;;;13.70;96.70;;;;;;4959500;28;20050;-74
2024/03/09 09:41:30;;;;;;;3.40;1.30;;;13.90;96.70;;;;;;4961986;28;20098;-74
2024/03/09 09:44:02;;;;;;;2.95;0.93;;;14.00;96.70;;;;;;4968289;28;20047;-74
2024/03/09 09:46:33;;;;;;;1.25;0.82;;;14.20;96.70;;;;;;4965774;28;20062;-73
2024/03/09 09:49:02;;;;;;;2.17;1.15;;;14.30;96.70;;;;;;4976108;28;20408;-73
2024/03/09 09:51:33;;;;;;;1.58;1.10;;;14.50;96.70;;;;;;4966906;28;20055;-74
2024/03/09 09:54:03;;;;;;;1.48;0.80;;;14.70;96.70;;;;;;4959343;28;20062;-72
2024/03/09 09:56:32;;;;;;;2.33;0.88;;;14.90;96.70;;;;;;4974779;28;20050;-74
2024/03/09 09:59:03;;;;;;;2.22;0.93;;;15.00;96.70;;;;;;4955517;28;20063;-73
2024/03/09 10:01:31;;;;;;;2.05;0.80;;;15.20;96.70;;;;;;4980192;28;20050;-74
2024/03/09 10:04:04;;;;;;;1.65;0.85;;;15.10;96.70;;;;;;4959253;28;20041;-73
2024/03/09 10:06:33;;;;;;;1.30;0.82;;;15.20;96.70;;;;;;4951101;28;20050;-78
2024/03/09 10:09:03;;;;;;;53.15;46.55;;;15.30;96.70;;;;;;4975264;28;20054;-72
2024/03/09 10:11:33;;;;;;;91.05;79.35;;;15.50;96.70;;;;;;4958908;28;20054;-73
2024/03/09 10:14:05;;;;;;;6.00;4.32;;;15.60;96.70;;;;;;4954277;28;20050;-74
2024/03/09 10:16:39;;;;;;;3.63;1.60;;;15.70;96.70;;;;;;4961999;28;20214;-72
2024/03/09 10:19:09;;;;;;;1.77;1.05;;;15.60;96.70;;;;;;4965855;28;20084;-73
2024/03/09 10:21:38;;;;;;;2.50;1.30;;;15.70;96.70;;;;;;4967892;28;20062;-73
2024/03/09 10:24:08;;;;;;;3.90;2.05;;;15.80;96.70;;;;;;4957122;28;20527;-73
2024/03/09 10:26:36;;;;;;;2.92;1.67;;;15.80;96.70;;;;;;4981117;28;20334;-73
2024/03/09 10:29:07;;;;;;;2.63;1.20;;;15.70;96.70;;;;;;4994463;28;20799;-73
2024/03/09 10:31:42;;;;;;;2.03;1.30;;;15.70;96.70;;;;;;4992236;28;20049;-74
2024/03/09 10:34:13;;;;;;;3.05;1.00;;;15.70;96.70;;;;;;4994532;28;20054;-73
2024/03/09 10:36:44;;;;;;;1.58;1.10;;;15.70;96.70;;;;;;4983171;28;20054;-74
2024/03/09 10:39:19;;;;;;;7.22;4.05;;;15.80;96.70;;;;;;4993007;28;20056;-76
2024/03/09 10:41:51;;;;;;;3.50;1.52;;;15.90;96.70;;;;;;4993319;28;20753;-77
2024/03/09 10:44:23;;;;;;;4.45;2.95;;;16.10;96.70;;;;;;4971919;28;20050;-77
2024/03/09 10:46:57;;;;;;;2.67;1.30;;;16.10;96.70;;;;;;4974089;28;20046;-77
2024/03/09 10:49:30;;;;;;;3.80;1.30;;;16.30;96.70;;;;;;4973966;28;20081;-77
2024/03/09 10:52:03;;;;;;;2.60;1.10;;;16.60;96.70;;;;;;4974184;28;20503;-76
2024/03/09 10:54:45;;;;;;;2.63;1.40;;;16.60;96.70;;;;;;4976315;28;20050;-75
2024/03/09 10:57:21;;;;;;;5.78;3.67;;;16.80;96.70;;;;;;4989434;28;20108;-75
2024/03/09 10:59:53;;;;;;;5.00;2.28;;;16.90;96.70;;;;;;4981873;28;20057;-76
2024/03/09 11:02:22;;;;;;;1.80;0.77;;;16.90;96.70;;;;;;4986875;28;20058;-76
2024/03/09 11:04:52;;;;;;;1.95;0.85;;;16.90;96.70;;;;;;4978446;28;20378;-75
2024/03/09 11:07:22;;;;;;;2.83;0.88;;;16.90;96.70;;;;;;4981145;28;20054;-75
2024/03/09 11:09:52;;;;;;;1.73;1.20;;;16.90;96.70;;;;;;4980082;28;20054;-76
2024/03/09 11:12:22;;;;;;;4.32;1.50;;;16.90;96.70;;;;;;4991909;28;20100;-75
2024/03/09 11:14:52;;;;;;;2.67;1.45;;;16.90;96.70;;;;;;4981219;28;21087;-75
2024/03/09 11:17:23;;;;;;;3.20;1.25;;;16.80;96.70;;;;;;4978801;28;20537;-75
2024/03/09 11:19:56;;;;;;;3.08;1.20;;;16.90;96.70;;;;;;5001397;28;20045;-76
2024/03/09 11:22:45;;;;;;;3.25;1.30;;;16.90;96.70;;;;;;4997882;28;20058;-75
2024/03/09 11:25:14;;;;;;;12.35;3.95;;;16.80;96.70;;;;;;4989157;28;20139;-74
2024/03/09 11:27:42;;;;;;;4.95;1.77;;;16.70;96.70;;;;;;4990336;28;20160;-74
2024/03/09 11:30:15;;;;;;;8.15;2.53;;;16.60;96.70;;;;;;4980330;28;20049;-75
2024/03/09 11:32:46;;;;;;;3.50;1.77;;;16.60;96.70;;;;;;4988407;28;20050;-74
2024/03/09 11:35:35;;;;;;;4.43;1.85;;;16.70;96.70;;;;;;4967516;28;20063;-75
2024/03/09 11:38:10;;;;;;;4.88;2.65;;;16.70;96.70;;;;;;4995441;28;20181;-74
2024/03/09 11:40:39;;;;;;;4.78;1.83;;;16.70;96.70;;;;;;4977516;28;20146;-74
2024/03/09 11:43:14;;;;;;;2.75;1.17;;;16.80;96.70;;;;;;4980376;28;20057;-74
2024/03/09 11:45:45;;;;;;;1.45;0.85;;;16.90;96.70;;;;;;4999788;28;20109;-74
2024/03/09 11:48:14;;;;;;;3.33;1.13;;;17.00;96.70;;;;;;4998835;28;20053;-74
2024/03/09 11:50:44;;;;;;;5.80;2.63;;;17.10;96.70;;;;;;4978674;28;20101;-74
2024/03/09 11:53:15;;;;;;;6.13;1.95;;;17.20;96.70;;;;;;4988499;28;20053;-74
2024/03/09 11:55:43;;;;;;;4.38;1.98;;;17.20;96.70;;;;;;4978271;28;20054;-74
2024/03/09 11:58:13;;;;;;;5.82;1.65;;;17.30;96.70;;;;;;4979455;28;20550;-75
2024/03/09 12:00:41;;;;;;;2.10;1.20;;;17.30;96.70;;;;;;4970981;28;20105;-76
2024/03/09 12:03:15;;;;;;;5.88;1.65;;;17.30;96.70;;;;;;4993562;28;20054;-76
2024/03/09 12:05:45;;;;;;;1.90;1.08;;;17.50;96.70;;;;;;4991023;28;20066;-75
2024/03/09 12:08:15;;;;;;;3.35;1.17;;;17.70;96.70;;;;;;4971707;28;20079;-76
2024/03/09 12:10:44;;;;;;;2.22;1.50;;;17.90;96.70;;;;;;4971855;28;20054;-75
2024/03/09 12:13:17;;;;;;;6.43;1.80;;;17.90;96.70;;;;;;4978002;28;20197;-75
2024/03/09 12:15:46;;;;;;;2.83;1.08;;;17.90;96.70;;;;;;4989258;28;20046;-75
2024/03/09 12:18:16;;;;;;;3.08;1.38;;;18.20;96.70;;;;;;5261200;23;20084;-67
2024/03/09 12:20:47;;;;;;;2.17;0.88;;;18.40;96.70;;;;;;4944974;28;20062;-66
2024/03/09 12:23:20;;;;;;;2.60;1.00;;;18.40;96.70;;;;;;4956900;28;20062;-66
2024/03/09 12:25:48;;;;;;;1.52;0.90;;;18.40;96.70;;;;;;5281340;23;20099;-65
2024/03/09 12:28:17;;;;;;;3.13;0.80;;;18.30;96.70;;;;;;4922826;29;20051;-65
2024/03/09 12:30:50;;;;;;;2.70;1.10;;;18.40;96.70;;;;;;4928548;29;20178;-66
2024/03/09 12:33:21;;;;;;;1.85;0.85;;;18.60;96.70;;;;;;4945642;28;20061;-64
2024/03/09 12:35:54;;;;;;;2.90;1.00;;;18.60;96.70;;;;;;4921521;29;20126;-67
2024/03/09 12:38:23;;;;;;;1.60;0.70;;;18.60;96.70;;;;;;4921638;29;20142;-66
2024/03/09 12:40:54;;;;;;;2.72;0.90;;;18.50;96.70;;;;;;4927948;29;20099;-66
2024/03/09 12:43:23;;;;;;;4.00;0.90;;;18.60;96.70;;;;;;4929580;29;20051;-66
2024/03/09 12:45:52;;;;;;;2.00;0.93;;;18.70;96.70;;;;;;4945228;29;20042;-65
2024/03/09 12:48:26;;;;;;;7.45;5.57;;;18.70;96.70;;;;;;4924799;29;20153;-66
2024/03/09 12:50:55;;;;;;;5.40;1.50;;;18.70;96.70;;;;;;4942993;28;20060;-66
2024/03/09 12:53:24;;;;;;;1.92;0.75;;;18.80;96.70;;;;;;4929995;29;20055;-66
2024/03/09 12:55:52;;;;;;;2.03;0.80;;;18.90;96.70;;;;;;4918803;29;20047;-67
2024/03/09 12:58:20;;;;;;;2.80;0.85;;;18.90;96.70;;;;;;4931414;29;20054;-65
2024/03/09 13:00:53;;;;;;;1.17;0.55;;;19.00;96.70;;;;;;4931060;29;20059;-65
2024/03/09 13:03:24;;;;;;;1.92;0.73;;;19.00;96.70;;;;;;4929940;29;20823;-66
2024/03/09 13:05:53;;;;;;;1.90;0.40;;;19.00;96.70;;;;;;4931051;29;20083;-65
2024/03/09 13:08:26;;;;;;;1.30;0.60;;;19.20;96.70;;;;;;4916007;29;20062;-66
2024/03/09 13:10:55;;;;;;;3.40;0.70;;;19.30;96.70;;;;;;4943962;29;20063;-65
2024/03/09 13:13:24;;;;;;;2.78;0.60;;;19.10;96.70;;;;;;4923449;29;20052;-65
2024/03/09 13:15:53;;;;;;;1.42;0.60;;;18.70;96.70;;;;;;4930039;29;20047;-65
2024/03/09 13:18:28;;;;;;;2.92;0.90;;;18.60;96.70;;;;;;4929756;29;20081;-65
2024/03/09 13:20:57;;;;;;;2.08;0.70;;;18.50;96.70;;;;;;4923742;29;20047;-65
2024/03/09 13:23:26;;;;;;;29.65;2.75;;;18.60;96.70;;;;;;4918335;29;20129;-66
2024/03/09 13:25:55;;;;;;;4.88;0.60;;;19.00;96.70;;;;;;4928793;29;20047;-67
2024/03/09 13:28:25;;;;;;;2.58;0.50;;;19.20;96.70;;;;;;4923200;29;20110;-66
2024/03/09 13:30:54;;;;;;;2.50;0.93;;;19.50;96.70;;;;;;4930268;29;20055;-66
2024/03/09 13:33:23;;;;;;;1.63;0.50;;;19.80;96.70;;;;;;4930165;29;20051;-66
2024/03/09 13:35:56;;;;;;;2.15;0.63;;;20.10;96.70;;;;;;4929899;29;20043;-66
2024/03/09 13:38:26;;;;;;;1.67;0.80;;;20.20;96.70;;;;;;4927814;29;20055;-66
2024/03/09 13:40:54;;;;;;;1.88;0.70;;;20.10;96.70;;;;;;4929274;29;20064;-65
2024/03/09 13:43:23;;;;;;;5.35;3.20;;;19.80;96.70;;;;;;4926622;29;20043;-66
2024/03/09 13:45:53;;;;;;;2.35;1.30;;;19.40;96.70;;;;;;4907147;29;20507;-66
2024/03/09 13:48:23;;;;;;;6.85;4.40;;;19.20;96.70;;;;;;4943688;29;20059;-64